Time;durP1;ratioP1;P1;durP2;ratioP2;P2;SDS_P1;SDS_P2;PMS_P1;PMS_P2;Temp;Humidity;BMP_temperature;BMP_pressure;BME280_temperature;BME280_humidity;BME280_pressure;Samples;Min_cycle;Max_cycle;Signal;HPM_P1;HPM_P2
2022/02/19 00:01:36;;;;;;;1.10;0.60;;;7.90;99.90;;;;;;5015296;28;20172;-55
2022/02/19 00:04:03;;;;;;;1.23;0.77;;;7.90;99.90;;;;;;5015298;28;20177;-53
2022/02/19 00:06:29;;;;;;;1.30;0.50;;;7.70;99.90;;;;;;5015381;28;20191;-56
2022/02/19 00:08:54;;;;;;;1.60;0.70;;;8.20;99.90;;;;;;5015267;28;20184;-56
2022/02/19 00:11:20;;;;;;;1.77;1.00;;;8.00;99.90;;;;;;5015456;28;20181;-55
2022/02/19 00:13:45;;;;;;;2.60;1.00;;;7.60;99.90;;;;;;5015467;28;20192;-54
2022/02/19 00:16:11;;;;;;;3.07;0.73;;;8.10;99.90;;;;;;5014570;28;20183;-56
2022/02/19 00:18:36;;;;;;;1.60;0.80;;;8.30;99.90;;;;;;5014438;28;20192;-53
2022/02/19 00:21:03;;;;;;;1.63;0.60;;;7.90;99.90;;;;;;5013520;28;20177;-53
2022/02/19 00:23:29;;;;;;;1.00;0.70;;;8.10;99.90;;;;;;5014435;28;20168;-53
2022/02/19 00:25:57;;;;;;;1.67;0.70;;;7.60;99.90;;;;;;5014233;28;20172;-53
2022/02/19 00:28:23;;;;;;;3.47;1.00;;;7.60;99.90;;;;;;5013538;28;20192;-56
2022/02/19 00:30:48;;;;;;;2.70;1.10;;;7.70;99.90;;;;;;5014835;28;20227;-53
2022/02/19 00:33:14;;;;;;;3.33;1.00;;;;;;;;;;5014638;28;20180;-53
2022/02/19 00:35:40;;;;;;;1.80;0.80;;;7.50;99.90;;;;;;5014318;28;20286;-52
2022/02/19 00:38:06;;;;;;;1.87;0.77;;;8.00;99.90;;;;;;5014539;28;20192;-54
2022/02/19 00:40:32;;;;;;;2.37;1.03;;;7.60;99.90;;;;;;5014396;28;20172;-52
2022/02/19 00:42:58;;;;;;;3.33;0.83;;;7.60;99.90;;;;;;5014795;28;20176;-56
2022/02/19 00:45:24;;;;;;;2.77;0.87;;;;;;;;;;5014319;28;20172;-55
2022/02/19 00:47:49;;;;;;;2.30;0.63;;;;;;;;;;5012980;28;20219;-57
2022/02/19 00:50:15;;;;;;;2.50;1.20;;;7.80;99.90;;;;;;5013590;28;20708;-52
2022/02/19 00:52:41;;;;;;;3.47;1.13;;;7.40;99.90;;;;;;5014092;28;20180;-53
2022/02/19 00:55:08;;;;;;;2.17;0.70;;;7.90;99.90;;;;;;5014003;28;20204;-51
2022/02/19 00:57:34;;;;;;;2.57;1.10;;;8.00;99.90;;;;;;5014251;28;20198;-55
2022/02/19 01:00:00;;;;;;;2.27;0.80;;;;;;;;;;5013973;28;20172;-56
2022/02/19 01:02:26;;;;;;;4.27;0.93;;;;;;;;;;5014161;28;20203;-58
2022/02/19 01:04:52;;;;;;;3.37;0.93;;;7.60;99.90;;;;;;5012091;28;20180;-56
2022/02/19 01:07:20;;;;;;;3.73;1.30;;;;;;;;;;5013849;28;20200;-54
2022/02/19 01:09:46;;;;;;;3.27;0.90;;;7.60;99.90;;;;;;5013559;28;20183;-56
2022/02/19 01:12:12;;;;;;;6.10;1.30;;;;;;;;;;5014055;28;20665;-54
2022/02/19 01:14:37;;;;;;;2.47;0.90;;;7.50;99.90;;;;;;5014049;28;20708;-53
2022/02/19 01:17:03;;;;;;;2.53;0.90;;;7.60;99.90;;;;;;5013613;28;20196;-51
2022/02/19 01:19:29;;;;;;;3.33;1.30;;;7.50;99.90;;;;;;5013311;28;20172;-54
2022/02/19 01:21:54;;;;;;;2.87;0.93;;;7.30;99.90;;;;;;5014023;28;20176;-57
2022/02/19 01:24:22;;;;;;;3.43;1.33;;;;;;;;;;5013913;28;20545;-58
2022/02/19 01:26:48;;;;;;;3.13;1.00;;;;;;;;;;5013485;28;20642;-55
2022/02/19 01:29:13;;;;;;;1.83;0.80;;;;;;;;;;5013774;28;20239;-56
2022/02/19 01:31:39;;;;;;;2.57;1.00;;;7.20;99.90;;;;;;5013629;28;20208;-53
2022/02/19 01:34:05;;;;;;;3.20;1.00;;;;;;;;;;5013423;28;20220;-52
2022/02/19 01:36:31;;;;;;;3.07;1.00;;;7.50;99.90;;;;;;5013738;28;20196;-55
2022/02/19 01:38:57;;;;;;;2.87;0.90;;;;;;;;;;5013499;28;20215;-56
2022/02/19 01:41:23;;;;;;;3.60;1.07;;;;;;;;;;5013507;28;20169;-52
2022/02/19 01:43:49;;;;;;;3.60;1.00;;;7.40;99.90;;;;;;5013911;28;20176;-53
2022/02/19 01:46:14;;;;;;;4.70;1.10;;;7.10;99.90;;;;;;5013438;28;20176;-51
2022/02/19 01:48:40;;;;;;;2.77;0.93;;;;;;;;;;5013044;28;20638;-56
2022/02/19 01:51:06;;;;;;;1.93;0.70;;;7.80;99.90;;;;;;5013648;28;20669;-58
2022/02/19 01:53:32;;;;;;;2.43;0.87;;;;;;;;;;5013561;28;20307;-55
2022/02/19 01:55:58;;;;;;;4.47;1.23;;;7.60;99.90;;;;;;5013455;28;20637;-54
2022/02/19 01:58:25;;;;;;;1.40;0.70;;;7.10;99.90;;;;;;5013740;28;20192;-54
2022/02/19 02:00:50;;;;;;;5.23;1.20;;;7.30;99.90;;;;;;5013160;28;20183;-56
2022/02/19 02:03:16;;;;;;;1.53;0.80;;;7.30;99.90;;;;;;5015533;28;20177;-56
2022/02/19 02:05:41;;;;;;;1.63;0.77;;;7.20;99.90;;;;;;5017172;28;20244;-56
2022/02/19 02:08:07;;;;;;;2.30;0.90;;;7.30;99.90;;;;;;5016812;28;20290;-56
2022/02/19 02:10:34;;;;;;;2.77;0.90;;;7.30;99.90;;;;;;5017141;28;20176;-56
2022/02/19 02:13:01;;;;;;;4.30;0.97;;;7.30;99.90;;;;;;5016947;28;20172;-52
2022/02/19 02:15:31;;;;;;;3.03;0.90;;;7.30;99.90;;;;;;5016877;28;20636;-54
2022/02/19 02:17:57;;;;;;;3.07;0.80;;;7.30;99.90;;;;;;5015124;28;20189;-52
2022/02/19 02:20:24;;;;;;;3.87;0.93;;;8.40;99.90;;;;;;5016700;28;20196;-53
2022/02/19 02:22:49;;;;;;;3.23;1.07;;;7.20;99.90;;;;;;5016572;28;20173;-52
2022/02/19 02:25:16;;;;;;;1.33;0.80;;;7.20;99.90;;;;;;5016744;28;20254;-53
2022/02/19 02:27:42;;;;;;;1.90;0.90;;;7.20;99.90;;;;;;5016530;28;20196;-55
2022/02/19 02:30:08;;;;;;;1.97;0.80;;;7.10;99.90;;;;;;5016309;28;20233;-53
2022/02/19 02:32:33;;;;;;;1.90;0.97;;;7.10;99.90;;;;;;5016770;28;20633;-52
2022/02/19 02:34:59;;;;;;;2.87;1.17;;;7.10;99.90;;;;;;5015966;28;20732;-55
2022/02/19 02:37:25;;;;;;;2.77;1.10;;;7.10;99.90;;;;;;5016448;28;20196;-55
2022/02/19 02:39:51;;;;;;;2.63;0.90;;;7.10;99.90;;;;;;5016177;28;20177;-56
2022/02/19 02:42:19;;;;;;;3.00;1.10;;;7.10;99.90;;;;;;5016560;28;20187;-54
2022/02/19 02:44:45;;;;;;;2.27;0.80;;;7.10;99.90;;;;;;5015894;28;20184;-54
2022/02/19 02:47:11;;;;;;;3.77;1.07;;;7.00;99.90;;;;;;5015706;28;20220;-53
2022/02/19 02:49:37;;;;;;;3.13;0.90;;;7.00;99.90;;;;;;5016022;28;20181;-55
2022/02/19 02:52:04;;;;;;;2.17;0.80;;;7.10;99.90;;;;;;5016287;28;20179;-54
2022/02/19 02:54:30;;;;;;;2.53;1.07;;;7.10;99.90;;;;;;5016168;28;20196;-53
2022/02/19 02:56:56;;;;;;;2.47;0.93;;;7.00;99.90;;;;;;5015824;28;20196;-51
2022/02/19 02:59:21;;;;;;;0.90;0.70;;;7.00;99.90;;;;;;5016201;28;20177;-56
2022/02/19 03:01:47;;;;;;;2.27;0.80;;;7.00;99.90;;;;;;5016176;28;20180;-53
2022/02/19 03:04:12;;;;;;;2.87;0.93;;;6.90;99.90;;;;;;5015988;28;20234;-53
2022/02/19 03:06:38;;;;;;;3.00;1.03;;;6.90;99.90;;;;;;5015486;28;20180;-52
2022/02/19 03:09:03;;;;;;;1.60;0.90;;;7.00;99.90;;;;;;5015676;28;20176;-56
2022/02/19 03:11:29;;;;;;;1.17;0.83;;;7.00;99.90;;;;;;5015706;28;20206;-53
2022/02/19 03:13:55;;;;;;;1.73;0.87;;;7.00;99.90;;;;;;5015234;28;20564;-56
2022/02/19 03:16:20;;;;;;;2.57;1.07;;;7.00;99.90;;;;;;5015821;28;20187;-51
2022/02/19 03:18:46;;;;;;;2.83;0.87;;;7.00;99.90;;;;;;5015620;28;20173;-52
2022/02/19 03:21:11;;;;;;;2.13;0.80;;;7.00;99.90;;;;;;5015310;28;20208;-55
2022/02/19 03:23:37;;;;;;;1.83;0.70;;;6.90;99.90;;;;;;5015145;28;20684;-55
2022/02/19 03:26:07;;;;;;;1.17;0.60;;;6.90;99.90;;;;;;5015403;28;20168;-52
2022/02/19 03:28:32;;;;;;;2.77;1.10;;;6.90;99.90;;;;;;5015499;28;20671;-56
2022/02/19 03:30:58;;;;;;;2.63;1.00;;;6.90;99.90;;;;;;5015327;28;20183;-55
2022/02/19 03:33:23;;;;;;;2.50;0.80;;;6.90;99.90;;;;;;5015137;28;20215;-54
2022/02/19 03:35:49;;;;;;;2.20;0.80;;;6.90;99.90;;;;;;5015169;28;20259;-53
2022/02/19 03:38:14;;;;;;;2.17;0.93;;;6.80;99.90;;;;;;5014779;28;20270;-56
2022/02/19 03:40:40;;;;;;;1.80;0.60;;;6.80;99.90;;;;;;5015122;28;20176;-56
2022/02/19 03:43:05;;;;;;;3.00;0.90;;;6.80;99.90;;;;;;5015502;28;20180;-53
2022/02/19 03:45:35;;;;;;;2.63;0.87;;;6.80;99.90;;;;;;5014615;28;20188;-53
2022/02/19 03:48:01;;;;;;;2.80;0.80;;;6.80;99.90;;;;;;5014623;28;20212;-55
2022/02/19 03:50:26;;;;;;;2.07;1.03;;;6.80;99.90;;;;;;5014328;28;20177;-54
2022/02/19 03:52:52;;;;;;;2.33;0.77;;;6.80;99.90;;;;;;5014678;28;20176;-52
2022/02/19 03:55:18;;;;;;;2.60;0.73;;;6.80;99.90;;;;;;5014697;28;20258;-54
2022/02/19 03:57:44;;;;;;;2.63;0.90;;;6.80;99.90;;;;;;5015041;28;20228;-55
2022/02/19 04:00:14;;;;;;;2.97;0.87;;;6.80;99.90;;;;;;5014815;28;20177;-57
2022/02/19 04:02:43;;;;;;;2.37;0.83;;;6.80;99.90;;;;;;5014770;28;20678;-53
2022/02/19 04:05:09;;;;;;;2.87;0.90;;;6.70;99.90;;;;;;5014381;28;20263;-57
2022/02/19 04:07:35;;;;;;;3.23;1.00;;;6.80;99.90;;;;;;5014637;28;20212;-56
2022/02/19 04:10:00;;;;;;;1.63;0.90;;;6.70;99.90;;;;;;5014262;28;20187;-59
2022/02/19 04:12:26;;;;;;;2.43;1.00;;;6.70;99.90;;;;;;5014474;28;20648;-53
2022/02/19 04:14:52;;;;;;;9.57;1.07;;;6.70;99.90;;;;;;5014124;28;20219;-55
2022/02/19 04:17:17;;;;;;;4.77;0.90;;;6.70;99.90;;;;;;5014201;28;20196;-56
2022/02/19 04:19:43;;;;;;;4.07;0.70;;;6.70;99.90;;;;;;5014183;28;20225;-54
2022/02/19 04:22:09;;;;;;;1.93;0.93;;;6.70;99.90;;;;;;5014058;28;20188;-52
2022/02/19 04:24:34;;;;;;;4.60;1.00;;;6.70;99.90;;;;;;5013926;28;20177;-53
2022/02/19 04:27:00;;;;;;;3.07;0.90;;;6.60;99.90;;;;;;5013698;28;20207;-55
2022/02/19 04:29:25;;;;;;;2.30;0.87;;;6.60;99.90;;;;;;5013973;28;20202;-52
2022/02/19 04:31:54;;;;;;;1.60;0.80;;;6.60;99.90;;;;;;5013980;28;20685;-53
2022/02/19 04:34:21;;;;;;;2.07;0.97;;;6.60;99.90;;;;;;5013656;28;20203;-57
2022/02/19 04:36:47;;;;;;;2.33;1.07;;;6.60;99.90;;;;;;5012345;28;20355;-54
2022/02/19 04:39:12;;;;;;;3.83;1.27;;;6.60;99.90;;;;;;5014052;28;20208;-53
2022/02/19 04:41:38;;;;;;;2.67;1.00;;;6.60;99.90;;;;;;5013830;28;20219;-52
2022/02/19 04:44:04;;;;;;;2.53;0.87;;;6.60;99.90;;;;;;5013830;28;20207;-53
2022/02/19 04:46:29;;;;;;;2.17;0.80;;;6.70;99.90;;;;;;5013512;28;20198;-52
2022/02/19 04:48:55;;;;;;;2.13;0.90;;;6.50;99.90;;;;;;5057099;23;20282;-57
2022/02/19 04:51:21;;;;;;;3.50;1.33;;;6.50;99.90;;;;;;5011482;28;20196;-55
2022/02/19 04:53:46;;;;;;;1.43;0.90;;;6.50;99.90;;;;;;5011785;28;20199;-54
2022/02/19 04:56:12;;;;;;;1.93;0.80;;;6.50;99.90;;;;;;5012118;28;20250;-54
2022/02/19 04:58:37;;;;;;;3.60;1.33;;;6.50;99.90;;;;;;5012301;28;20192;-55
2022/02/19 05:01:03;;;;;;;4.60;0.90;;;6.50;99.90;;;;;;5012655;28;20172;-56
2022/02/19 05:03:28;;;;;;;3.43;1.17;;;6.40;99.90;;;;;;5012567;28;20255;-56
2022/02/19 05:05:54;;;;;;;2.07;1.20;;;6.40;99.90;;;;;;4998383;28;20282;-54
2022/02/19 05:08:19;;;;;;;3.87;0.87;;;6.40;99.90;;;;;;4991181;28;20192;-52
2022/02/19 05:10:45;;;;;;;2.13;1.20;;;6.30;99.90;;;;;;4991697;28;20173;-56
2022/02/19 05:13:10;;;;;;;1.67;0.87;;;6.30;99.90;;;;;;4992728;28;20181;-54
2022/02/19 05:15:36;;;;;;;3.70;1.00;;;6.40;99.90;;;;;;4992740;28;20213;-57
2022/02/19 05:18:05;;;;;;;3.50;1.43;;;6.40;99.90;;;;;;4992664;28;20694;-55
2022/02/19 05:20:31;;;;;;;2.73;1.00;;;6.30;99.90;;;;;;4992896;28;20177;-54
2022/02/19 05:22:57;;;;;;;1.60;0.87;;;6.40;99.90;;;;;;4992465;28;20600;-55
2022/02/19 05:25:23;;;;;;;3.00;1.00;;;6.20;99.90;;;;;;4992502;28;20188;-52
2022/02/19 05:27:49;;;;;;;3.23;1.10;;;6.30;99.90;;;;;;4992791;28;20197;-51
2022/02/19 05:30:15;;;;;;;3.97;1.17;;;6.30;99.90;;;;;;4992522;28;20188;-53
2022/02/19 05:32:40;;;;;;;2.70;0.90;;;5.80;99.90;;;;;;4992993;28;20219;-55
2022/02/19 05:35:06;;;;;;;1.90;0.90;;;6.30;99.90;;;;;;4992523;28;20205;-50
2022/02/19 05:37:32;;;;;;;4.03;1.50;;;6.00;99.90;;;;;;4995583;28;20197;-55
2022/02/19 05:39:59;;;;;;;3.87;1.10;;;6.00;99.90;;;;;;4996506;28;20277;-52
2022/02/19 05:42:25;;;;;;;1.90;0.90;;;6.20;99.90;;;;;;4996527;28;20256;-52
2022/02/19 05:44:51;;;;;;;3.20;1.00;;;;;;;;;;4996541;28;20181;-56
2022/02/19 05:47:20;;;;;;;5.53;1.50;;;6.00;99.90;;;;;;4996450;28;20204;-58
2022/02/19 05:49:47;;;;;;;3.13;1.10;;;5.90;99.90;;;;;;4996555;28;20639;-55
2022/02/19 05:52:13;;;;;;;2.07;0.90;;;5.70;99.90;;;;;;4996630;28;20177;-56
2022/02/19 05:54:39;;;;;;;2.43;1.10;;;5.70;99.90;;;;;;4996442;28;20212;-55
2022/02/19 05:57:04;;;;;;;2.90;1.23;;;5.90;99.90;;;;;;4996179;28;20647;-56
2022/02/19 05:59:30;;;;;;;3.97;1.20;;;6.10;99.90;;;;;;4996444;28;20200;-55
2022/02/19 06:01:55;;;;;;;3.00;1.13;;;5.80;99.90;;;;;;4996155;28;20185;-54
2022/02/19 06:04:21;;;;;;;5.60;1.43;;;5.70;99.90;;;;;;4996153;28;20184;-56
2022/02/19 06:06:46;;;;;;;3.37;1.23;;;6.10;99.90;;;;;;4995124;28;20677;-51
2022/02/19 06:09:12;;;;;;;5.90;1.30;;;;;;;;;;4996229;28;20197;-55
2022/02/19 06:11:40;;;;;;;2.30;1.00;;;;;;;;;;4996683;28;20177;-54
2022/02/19 06:14:06;;;;;;;3.00;1.00;;;5.80;99.90;;;;;;4996390;28;20193;-55
2022/02/19 06:16:31;;;;;;;4.17;1.07;;;5.60;99.90;;;;;;4996012;28;20223;-55
2022/02/19 06:18:57;;;;;;;2.17;1.03;;;5.70;99.90;;;;;;4996088;28;20201;-54
2022/02/19 06:21:22;;;;;;;3.57;1.17;;;5.50;99.90;;;;;;4996344;28;20204;-55
2022/02/19 06:23:48;;;;;;;2.87;1.20;;;5.90;99.90;;;;;;4996077;28;20176;-54
2022/02/19 06:26:13;;;;;;;1.73;0.90;;;5.30;99.90;;;;;;4994630;28;20177;-52
2022/02/19 06:28:39;;;;;;;4.87;1.63;;;;;;;;;;4995444;28;20678;-55
2022/02/19 06:31:06;;;;;;;4.00;1.27;;;;;;;;;;4995696;28;20760;-55
2022/02/19 06:33:32;;;;;;;3.03;1.10;;;;;;;;;;4995800;28;20651;-56
2022/02/19 06:35:57;;;;;;;3.00;1.10;;;5.60;99.90;;;;;;4995854;28;20267;-54
2022/02/19 06:38:23;;;;;;;6.47;1.70;;;;;;;;;;4995255;28;20201;-54
2022/02/19 06:40:49;;;;;;;3.27;0.97;;;5.30;99.90;;;;;;4995415;28;20650;-55
2022/02/19 06:43:15;;;;;;;4.33;1.27;;;5.70;99.90;;;;;;4995663;28;20192;-56
2022/02/19 06:45:41;;;;;;;2.80;1.10;;;5.50;99.90;;;;;;4995191;28;20181;-53
2022/02/19 06:48:06;;;;;;;4.87;1.30;;;;;;;;;;4994203;28;20713;-55
2022/02/19 06:50:32;;;;;;;4.53;1.43;;;5.60;99.90;;;;;;4995259;28;20180;-51
2022/02/19 06:52:59;;;;;;;6.33;1.73;;;5.90;99.90;;;;;;4995191;28;20173;-55
2022/02/19 06:55:24;;;;;;;3.43;1.13;;;5.60;99.90;;;;;;4995200;28;20299;-55
2022/02/19 06:57:51;;;;;;;5.50;1.63;;;5.40;99.90;;;;;;4995133;28;20717;-53
2022/02/19 07:00:17;;;;;;;3.97;1.40;;;5.80;99.90;;;;;;4993513;28;20698;-55
2022/02/19 07:02:42;;;;;;;2.33;1.17;;;5.60;99.90;;;;;;4995340;28;20173;-52
2022/02/19 07:05:09;;;;;;;3.17;1.37;;;6.00;99.90;;;;;;4994812;28;20239;-55
2022/02/19 07:07:35;;;;;;;3.50;1.17;;;5.40;99.90;;;;;;4995234;28;20201;-54
2022/02/19 07:10:01;;;;;;;6.93;1.37;;;5.80;99.90;;;;;;4995016;28;20205;-54
2022/02/19 07:12:27;;;;;;;2.70;1.40;;;5.80;99.90;;;;;;4995059;28;20219;-56
2022/02/19 07:14:53;;;;;;;2.93;1.10;;;;;;;;;;4994640;28;20674;-53
2022/02/19 07:17:19;;;;;;;4.27;1.30;;;;;;;;;;4993693;28;20677;-57
2022/02/19 07:19:45;;;;;;;2.57;1.17;;;6.00;99.90;;;;;;4994579;28;20165;-53
2022/02/19 07:22:11;;;;;;;4.30;1.03;;;5.80;99.90;;;;;;4994642;28;20231;-57
2022/02/19 07:24:36;;;;;;;4.10;1.47;;;6.20;99.90;;;;;;4994620;28;20178;-50
2022/02/19 07:27:02;;;;;;;4.50;1.50;;;5.80;99.90;;;;;;4994555;28;20173;-52
2022/02/19 07:29:28;;;;;;;3.00;1.23;;;6.10;99.90;;;;;;4994476;28;20252;-56
2022/02/19 07:31:54;;;;;;;3.40;1.00;;;;;;;;;;4994556;28;20177;-53
2022/02/19 07:34:20;;;;;;;3.13;1.20;;;;;;;;;;4994353;28;20682;-56
2022/02/19 07:36:45;;;;;;;4.33;1.50;;;6.10;99.90;;;;;;4994320;28;20200;-50
2022/02/19 07:39:11;;;;;;;5.00;1.10;;;6.30;99.90;;;;;;4994202;28;20567;-52
2022/02/19 07:41:38;;;;;;;1.40;0.87;;;6.30;99.90;;;;;;4994413;28;20180;-52
2022/02/19 07:44:04;;;;;;;2.27;1.10;;;6.30;99.90;;;;;;4992972;28;20262;-53
2022/02/19 07:46:30;;;;;;;4.93;1.50;;;6.40;99.90;;;;;;4993996;28;20219;-55
2022/02/19 07:48:56;;;;;;;3.03;1.27;;;6.50;99.90;;;;;;4993817;28;20611;-52
2022/02/19 07:59:34;;;;;;;4.23;1.33;;;6.10;99.90;;;;;;4993723;28;20196;-53
2022/02/19 08:01:59;;;;;;;4.10;1.00;;;6.00;99.90;;;;;;4992608;28;20177;-53
2022/02/19 08:04:25;;;;;;;3.20;1.40;;;6.10;99.90;;;;;;4993863;28;20188;-51
2022/02/19 08:06:51;;;;;;;3.57;1.30;;;6.00;99.90;;;;;;4993732;28;20177;-54
2022/02/19 08:09:16;;;;;;;4.53;1.50;;;6.20;99.90;;;;;;4993684;28;20311;-55
2022/02/19 08:11:42;;;;;;;6.00;2.50;;;6.70;99.90;;;;;;4993779;28;20269;-55
2022/02/19 08:14:08;;;;;;;6.17;2.50;;;6.90;99.90;;;;;;4993673;28;20272;-55
2022/02/19 08:16:33;;;;;;;5.40;1.50;;;7.00;99.90;;;;;;4993719;28;20732;-52
2022/02/19 08:18:59;;;;;;;3.17;1.37;;;6.90;99.90;;;;;;4993366;28;20192;-53
2022/02/19 08:21:26;;;;;;;3.53;1.50;;;7.00;99.90;;;;;;4993579;28;20216;-53
2022/02/19 08:23:52;;;;;;;4.60;1.30;;;7.10;99.90;;;;;;4993499;28;20173;-56
2022/02/19 08:26:27;;;;;;;2.63;1.33;;;7.30;99.90;;;;;;4993467;28;20205;-55
2022/02/19 08:28:54;;;;;;;4.53;1.57;;;7.30;99.90;;;;;;4993049;28;20195;-59
2022/02/19 08:31:20;;;;;;;3.20;1.33;;;8.10;99.90;;;;;;4993324;28;20223;-56
2022/02/19 08:33:46;;;;;;;2.40;1.10;;;8.80;99.90;;;;;;4993393;28;20165;-54
2022/02/19 08:36:12;;;;;;;4.47;1.57;;;9.10;99.90;;;;;;4993110;28;20180;-55
2022/02/19 08:38:37;;;;;;;3.43;1.30;;;9.70;99.90;;;;;;4992947;28;20214;-56
2022/02/19 08:41:04;;;;;;;4.63;1.47;;;10.70;99.90;;;;;;4993232;28;20515;-57
2022/02/19 08:43:29;;;;;;;1.80;0.90;;;11.00;99.90;;;;;;4993059;28;20174;-53
2022/02/19 08:45:55;;;;;;;4.63;1.50;;;11.40;99.90;;;;;;4992945;28;20662;-56
2022/02/19 08:48:21;;;;;;;3.57;1.30;;;10.90;99.90;;;;;;4992611;28;20212;-55
2022/02/19 08:50:46;;;;;;;2.73;1.13;;;10.50;99.90;;;;;;4993349;28;20726;-56
2022/02/19 08:53:12;;;;;;;3.50;1.33;;;10.40;99.90;;;;;;4993152;28;20197;-56
2022/02/19 08:55:40;;;;;;;3.67;1.40;;;10.20;99.90;;;;;;4992881;28;20205;-54
2022/02/19 08:58:06;;;;;;;4.83;1.90;;;9.50;99.90;;;;;;4992702;28;20232;-56
2022/02/19 09:00:31;;;;;;;4.60;1.57;;;9.60;99.90;;;;;;4992904;28;20195;-53
2022/02/19 09:02:57;;;;;;;6.27;1.73;;;11.00;99.90;;;;;;4993007;28;20727;-57
2022/02/19 09:05:23;;;;;;;5.27;1.23;;;11.20;98.30;;;;;;4992593;28;20181;-53
2022/02/19 09:07:48;;;;;;;3.37;1.33;;;11.30;97.00;;;;;;4992737;28;20213;-56
2022/02/19 09:10:16;;;;;;;4.07;1.80;;;11.50;97.00;;;;;;4992578;28;20300;-55
2022/02/19 09:12:46;;;;;;;4.27;1.50;;;11.00;97.80;;;;;;4992230;28;20181;-55
2022/02/19 09:15:13;;;;;;;4.07;1.37;;;11.50;97.70;;;;;;4992504;28;20202;-50
2022/02/19 09:17:39;;;;;;;3.33;1.37;;;12.00;95.80;;;;;;4992618;28;20323;-53
2022/02/19 09:20:05;;;;;;;4.33;1.30;;;11.30;97.40;;;;;;4992476;28;20319;-57
2022/02/19 09:22:31;;;;;;;4.33;1.30;;;12.00;96.70;;;;;;4992199;28;20555;-54
2022/02/19 09:24:56;;;;;;;3.47;1.33;;;13.50;95.00;;;;;;4992136;28;20197;-54
2022/02/19 09:27:22;;;;;;;3.03;1.10;;;14.20;91.80;;;;;;4992473;28;20209;-54
2022/02/19 09:29:47;;;;;;;3.90;1.27;;;13.20;92.70;;;;;;4992391;28;20232;-56
2022/02/19 09:32:13;;;;;;;3.97;1.40;;;12.90;93.50;;;;;;4992498;28;20177;-56
2022/02/19 09:34:38;;;;;;;2.33;1.30;;;13.90;91.30;;;;;;4992207;28;20201;-56
2022/02/19 09:37:04;;;;;;;2.17;1.00;;;13.30;92.00;;;;;;4992659;28;20632;-55
2022/02/19 09:39:30;;;;;;;6.13;1.43;;;13.70;92.20;;;;;;4992509;28;20184;-55
2022/02/19 09:42:02;;;;;;;3.57;1.37;;;14.40;90.20;;;;;;4992630;28;20655;-56
2022/02/19 09:44:27;;;;;;;4.37;1.40;;;13.20;90.80;;;;;;4992570;28;20177;-54
2022/02/19 09:46:55;;;;;;;3.23;1.37;;;13.30;91.70;;;;;;4992348;28;20699;-54
2022/02/19 09:49:20;;;;;;;5.47;1.70;;;12.90;92.40;;;;;;4992099;28;20233;-54
2022/02/19 09:51:46;;;;;;;4.03;1.60;;;12.20;91.90;;;;;;4992278;28;20215;-53
2022/02/19 09:54:11;;;;;;;3.40;1.40;;;12.30;93.60;;;;;;4992311;28;20201;-56
2022/02/19 09:56:37;;;;;;;3.20;1.67;;;13.90;92.10;;;;;;4992257;28;20169;-54
2022/02/19 09:59:06;;;;;;;4.63;1.67;;;15.00;91.20;;;;;;4992164;28;20583;-55
2022/02/19 10:01:31;;;;;;;3.67;1.40;;;15.70;86.30;;;;;;4992321;28;20194;-51
2022/02/19 10:04:04;;;;;;;4.10;1.43;;;13.80;88.30;;;;;;4992213;28;20755;-53
2022/02/19 10:06:32;;;;;;;3.10;1.57;;;13.50;90.50;;;;;;4992182;28;20170;-50
2022/02/19 10:09:10;;;;;;;4.50;1.50;;;14.00;89.50;;;;;;4992202;28;20193;-52
2022/02/19 10:11:37;;;;;;;3.53;1.73;;;13.40;90.60;;;;;;4992165;28;20693;-52
2022/02/19 10:14:21;;;;;;;3.33;1.53;;;14.40;89.50;;;;;;4992158;28;20217;-54
2022/02/19 10:17:02;;;;;;;2.90;1.40;;;15.90;88.60;;;;;;4992211;28;20211;-50
2022/02/19 10:19:28;;;;;;;3.77;1.57;;;17.90;81.20;;;;;;4992183;28;20230;-57
2022/02/19 10:22:11;;;;;;;2.90;1.27;;;18.30;77.70;;;;;;4992053;28;20177;-54
2022/02/19 10:24:37;;;;;;;4.23;1.13;;;18.00;72.30;;;;;;4994546;28;20243;-53
2022/02/19 10:27:04;;;;;;;3.65;1.58;;;18.60;72.40;;;;;;4995528;28;20178;-51
2022/02/19 10:29:32;;;;;;;3.65;1.30;;;19.80;70.20;;;;;;4995713;28;20273;-54
2022/02/19 10:31:58;;;;;;;3.30;1.13;;;20.80;68.70;;;;;;4995699;28;20177;-53
2022/02/19 10:34:24;;;;;;;2.78;1.17;;;21.00;68.00;;;;;;4995561;28;20204;-52
2022/02/19 10:36:54;;;;;;;3.33;1.45;;;21.40;65.10;;;;;;4995569;28;20243;-54
2022/02/19 10:39:30;;;;;;;3.40;1.17;;;22.50;63.70;;;;;;4995234;28;20284;-53
2022/02/19 10:42:02;;;;;;;4.55;1.73;;;22.00;65.00;;;;;;4995644;28;20554;-52
2022/02/19 10:44:32;;;;;;;2.25;1.30;;;22.80;60.50;;;;;;4995460;28;20578;-56
2022/02/19 10:47:24;;;;;;;5.78;1.90;;;23.30;58.20;;;;;;4995330;28;20223;-56
2022/02/19 10:50:05;;;;;;;2.78;1.42;;;24.40;56.50;;;;;;4995633;28;20185;-54
2022/02/19 10:52:31;;;;;;;4.22;1.50;;;24.90;55.40;;;;;;4995685;28;20193;-55
2022/02/19 10:55:07;;;;;;;5.78;1.65;;;26.10;53.60;;;;;;4995349;28;20690;-57
2022/02/19 10:57:40;;;;;;;3.13;1.40;;;26.90;51.70;;;;;;4995522;28;20684;-57
2022/02/19 11:00:14;;;;;;;9.35;1.45;;;27.50;47.80;;;;;;4995023;28;20173;-52
2022/02/19 11:02:41;;;;;;;3.15;1.45;;;26.40;47.90;;;;;;4995371;28;20184;-50
2022/02/19 11:05:08;;;;;;;4.40;1.48;;;25.70;47.60;;;;;;4995127;28;20627;-55
2022/02/19 11:07:39;;;;;;;3.05;0.93;;;25.60;48.70;;;;;;4995215;28;20216;-53
2022/02/19 11:10:06;;;;;;;1.27;0.77;;;24.60;48.00;;;;;;4994731;28;20227;-52
2022/02/19 11:12:32;;;;;;;2.58;1.23;;;21.60;47.10;;;;;;4994957;28;20268;-50
2022/02/19 11:14:58;;;;;;;2.85;1.30;;;20.70;49.50;;;;;;4995002;28;20260;-55
2022/02/19 11:17:26;;;;;;;4.78;1.58;;;20.70;53.80;;;;;;4995067;28;20632;-56
2022/02/19 11:19:52;;;;;;;3.28;1.50;;;22.40;51.00;;;;;;4994684;28;20182;-57
2022/02/19 11:22:22;;;;;;;3.00;1.42;;;22.60;49.60;;;;;;4994738;28;20197;-56
2022/02/19 11:24:49;;;;;;;2.75;1.40;;;22.30;49.60;;;;;;4994795;28;20247;-52
2022/02/19 11:27:18;;;;;;;3.53;1.00;;;22.10;48.50;;;;;;4994805;28;20170;-52
2022/02/19 11:29:45;;;;;;;4.13;1.27;;;20.10;44.80;;;;;;4994611;28;20179;-55
2022/02/19 11:32:16;;;;;;;3.07;1.10;;;17.40;47.60;;;;;;4994560;28;20180;-56
2022/02/19 11:34:48;;;;;;;1.77;0.70;;;16.60;47.30;;;;;;4994372;28;20248;-54
2022/02/19 11:37:15;;;;;;;3.80;1.57;;;16.70;48.40;;;;;;4994722;28;20177;-52
2022/02/19 11:40:03;;;;;;;1.83;1.07;;;16.30;47.10;;;;;;4994429;28;20176;-58
2022/02/19 11:42:40;;;;;;;2.10;1.07;;;15.40;48.10;;;;;;4995094;28;20259;-54
2022/02/19 11:45:29;;;;;;;2.30;1.20;;;15.60;48.70;;;;;;4994567;28;20193;-52
2022/02/19 11:48:07;;;;;;;2.10;1.00;;;15.90;50.30;;;;;;4994176;28;20210;-55
2022/02/19 11:50:36;;;;;;;1.87;0.80;;;15.30;49.10;;;;;;4994357;28;20173;-53
2022/02/19 11:53:11;;;;;;;1.73;0.87;;;15.30;49.20;;;;;;4994798;28;20172;-53
2022/02/19 11:55:41;;;;;;;2.47;1.10;;;15.10;48.50;;;;;;4994092;28;20181;-52
2022/02/19 11:58:18;;;;;;;2.87;1.10;;;15.00;48.70;;;;;;4994282;28;20209;-52
2022/02/19 12:00:56;;;;;;;4.33;1.00;;;15.00;50.60;;;;;;4994499;28;20661;-54
2022/02/19 12:03:25;;;;;;;3.07;0.90;;;14.20;49.70;;;;;;4994416;28;20184;-56
2022/02/19 12:06:14;;;;;;;3.30;1.23;;;12.90;49.90;;;;;;4994246;28;20208;-55
2022/02/19 12:08:48;;;;;;;2.80;1.10;;;12.20;51.20;;;;;;4994042;28;20196;-56
2022/02/19 12:11:18;;;;;;;5.37;1.07;;;12.10;50.70;;;;;;4994019;28;20182;-53
2022/02/19 12:14:02;;;;;;;2.77;0.97;;;12.10;50.10;;;;;;4994241;28;20627;-53
2022/02/19 12:18:57;;;;;;;3.53;1.50;;;12.80;53.30;;;;;;4994071;28;20195;-54
2022/02/19 12:21:33;;;;;;;2.70;1.23;;;12.70;52.00;;;;;;4994071;28;20512;-52
2022/02/19 12:24:29;;;;;;;2.30;1.27;;;12.40;54.10;;;;;;4994293;28;20230;-56
2022/02/19 12:26:57;;;;;;;3.60;1.43;;;12.50;54.40;;;;;;4991542;28;20185;-53
2022/02/19 12:29:28;;;;;;;3.23;1.03;;;13.60;53.50;;;;;;4991388;28;20174;-53
2022/02/19 12:32:04;;;;;;;3.53;1.27;;;14.10;53.50;;;;;;4991264;28;20248;-53
2022/02/19 12:34:34;;;;;;;2.50;0.90;;;14.10;53.10;;;;;;4991190;28;20263;-53
2022/02/19 12:37:00;;;;;;;2.67;1.00;;;14.20;54.20;;;;;;4991195;28;20211;-56
2022/02/19 12:39:26;;;;;;;2.57;1.00;;;14.40;50.90;;;;;;4991294;28;20643;-53
2022/02/19 12:41:56;;;;;;;3.53;1.27;;;13.80;51.70;;;;;;4991241;28;20184;-54
2022/02/19 12:44:23;;;;;;;2.23;1.10;;;13.50;51.00;;;;;;4991128;28;20209;-53
2022/02/19 12:46:52;;;;;;;2.20;0.63;;;13.50;54.70;;;;;;4990555;28;20647;-52
2022/02/19 12:49:19;;;;;;;2.80;0.83;;;14.40;53.30;;;;;;4990818;28;20285;-54
2022/02/19 12:51:56;;;;;;;2.20;0.90;;;15.00;53.90;;;;;;4991168;28;20177;-54
2022/02/19 12:54:39;;;;;;;2.30;0.93;;;16.20;52.00;;;;;;4991102;28;20669;-50
2022/02/19 12:57:06;;;;;;;2.50;1.17;;;17.20;51.10;;;;;;4990989;28;20671;-52
2022/02/19 12:59:33;;;;;;;3.22;1.13;;;17.30;49.50;;;;;;4991184;28;20308;-54
2022/02/19 13:02:00;;;;;;;3.58;1.05;;;17.10;52.00;;;;;;4991101;28;20172;-55
2022/02/19 13:04:31;;;;;;;3.30;1.00;;;17.60;50.00;;;;;;4992962;28;20218;-55
2022/02/19 13:06:58;;;;;;;2.88;1.13;;;16.20;51.90;;;;;;4993303;28;20201;-52
2022/02/19 13:09:25;;;;;;;3.30;1.03;;;15.80;50.90;;;;;;4993259;28;20176;-53
2022/02/19 13:11:52;;;;;;;3.50;1.13;;;15.20;51.30;;;;;;4993330;28;20170;-52
2022/02/19 13:14:19;;;;;;;3.00;1.10;;;14.70;50.80;;;;;;4993709;28;20185;-52